sensor_id;sensor_type;location;lat;lon;timestamp;temperature;humidity
64685;DHT22;51109;47.414;18.954;2023-03-13T00:01:23;4.50;99.90
64685;DHT22;51109;47.414;18.954;2023-03-13T00:03:50;4.50;99.90
64685;DHT22;51109;47.414;18.954;2023-03-13T00:06:17;4.50;99.90
64685;DHT22;51109;47.414;18.954;2023-03-13T00:08:43;4.50;99.90
64685;DHT22;51109;47.414;18.954;2023-03-13T00:11:11;4.50;99.90
64685;DHT22;51109;47.414;18.954;2023-03-13T00:13:37;4.40;99.90
64685;DHT22;51109;47.414;18.954;2023-03-13T00:16:11;4.40;99.90
64685;DHT22;51109;47.414;18.954;2023-03-13T00:18:38;4.50;99.90
64685;DHT22;51109;47.414;18.954;2023-03-13T00:21:06;4.50;99.90
64685;DHT22;51109;47.414;18.954;2023-03-13T00:23:34;4.50;99.90
64685;DHT22;51109;47.414;18.954;2023-03-13T00:26:03;4.40;99.90
64685;DHT22;51109;47.414;18.954;2023-03-13T00:28:32;4.40;99.90
64685;DHT22;51109;47.414;18.954;2023-03-13T00:33:27;4.40;99.90
64685;DHT22;51109;47.414;18.954;2023-03-13T00:36:00;4.30;99.90
64685;DHT22;51109;47.414;18.954;2023-03-13T00:38:28;4.40;99.90
64685;DHT22;51109;47.414;18.954;2023-03-13T00:41:01;4.40;99.90
64685;DHT22;51109;47.414;18.954;2023-03-13T00:43:27;4.40;99.90
64685;DHT22;51109;47.414;18.954;2023-03-13T00:45:53;4.40;99.90
64685;DHT22;51109;47.414;18.954;2023-03-13T00:48:19;4.40;99.90
64685;DHT22;51109;47.414;18.954;2023-03-13T00:50:45;4.40;99.90
64685;DHT22;51109;47.414;18.954;2023-03-13T00:53:11;4.40;99.90
64685;DHT22;51109;47.414;18.954;2023-03-13T00:55:37;4.40;99.90
64685;DHT22;51109;47.414;18.954;2023-03-13T00:58:03;4.40;99.90
64685;DHT22;51109;47.414;18.954;2023-03-13T01:00:29;4.40;99.90
64685;DHT22;51109;47.414;18.954;2023-03-13T01:02:55;4.40;99.90
64685;DHT22;51109;47.414;18.954;2023-03-13T01:05:21;4.40;99.90
64685;DHT22;51109;47.414;18.954;2023-03-13T01:07:47;4.40;99.90
64685;DHT22;51109;47.414;18.954;2023-03-13T01:10:15;4.40;99.90
64685;DHT22;51109;47.414;18.954;2023-03-13T01:12:41;4.30;99.90
64685;DHT22;51109;47.414;18.954;2023-03-13T01:15:07;4.40;99.90
64685;DHT22;51109;47.414;18.954;2023-03-13T01:17:34;4.30;99.90
64685;DHT22;51109;47.414;18.954;2023-03-13T01:20:00;4.40;99.90
64685;DHT22;51109;47.414;18.954;2023-03-13T01:22:26;4.40;99.90
64685;DHT22;51109;47.414;18.954;2023-03-13T01:24:52;4.40;99.90
64685;DHT22;51109;47.414;18.954;2023-03-13T01:27:18;4.40;99.90
64685;DHT22;51109;47.414;18.954;2023-03-13T01:29:44;4.40;99.90
64685;DHT22;51109;47.414;18.954;2023-03-13T01:32:10;4.40;99.90
64685;DHT22;51109;47.414;18.954;2023-03-13T01:34:36;4.40;99.90
64685;DHT22;51109;47.414;18.954;2023-03-13T01:37:02;4.40;99.90
64685;DHT22;51109;47.414;18.954;2023-03-13T01:39:28;4.50;99.90
64685;DHT22;51109;47.414;18.954;2023-03-13T01:41:54;4.40;99.90
64685;DHT22;51109;47.414;18.954;2023-03-13T01:44:24;4.50;99.90
64685;DHT22;51109;47.414;18.954;2023-03-13T01:46:51;4.40;99.90
64685;DHT22;51109;47.414;18.954;2023-03-13T01:49:28;4.40;99.90
64685;DHT22;51109;47.414;18.954;2023-03-13T01:52:02;4.40;99.90
64685;DHT22;51109;47.414;18.954;2023-03-13T01:54:34;4.40;99.90
64685;DHT22;51109;47.414;18.954;2023-03-13T01:57:27;4.40;99.90
64685;DHT22;51109;47.414;18.954;2023-03-13T01:59:58;4.40;99.90
64685;DHT22;51109;47.414;18.954;2023-03-13T02:05:21;4.40;99.90
64685;DHT22;51109;47.414;18.954;2023-03-13T02:07:52;4.40;99.90
64685;DHT22;51109;47.414;18.954;2023-03-13T02:10:20;4.50;99.90
64685;DHT22;51109;47.414;18.954;2023-03-13T02:12:47;4.50;99.90
64685;DHT22;51109;47.414;18.954;2023-03-13T02:15:19;4.50;99.90
64685;DHT22;51109;47.414;18.954;2023-03-13T02:17:47;4.60;99.90
64685;DHT22;51109;47.414;18.954;2023-03-13T02:20:16;4.60;99.90
64685;DHT22;51109;47.414;18.954;2023-03-13T02:25:44;4.60;99.90
64685;DHT22;51109;47.414;18.954;2023-03-13T02:28:20;4.70;99.90
64685;DHT22;51109;47.414;18.954;2023-03-13T02:30:49;4.60;99.90
64685;DHT22;51109;47.414;18.954;2023-03-13T02:33:17;4.60;99.90
64685;DHT22;51109;47.414;18.954;2023-03-13T02:35:45;4.60;99.90
64685;DHT22;51109;47.414;18.954;2023-03-13T02:38:16;4.60;99.90
64685;DHT22;51109;47.414;18.954;2023-03-13T02:40:45;4.60;99.90
64685;DHT22;51109;47.414;18.954;2023-03-13T02:43:25;4.60;99.90
64685;DHT22;51109;47.414;18.954;2023-03-13T02:48:38;4.50;99.90
64685;DHT22;51109;47.414;18.954;2023-03-13T02:51:13;4.60;99.90
64685;DHT22;51109;47.414;18.954;2023-03-13T02:53:41;4.50;99.90
64685;DHT22;51109;47.414;18.954;2023-03-13T02:56:08;4.50;99.90
64685;DHT22;51109;47.414;18.954;2023-03-13T02:58:38;4.40;99.90
64685;DHT22;51109;47.414;18.954;2023-03-13T03:01:04;4.40;99.90
64685;DHT22;51109;47.414;18.954;2023-03-13T03:03:35;4.50;99.90
64685;DHT22;51109;47.414;18.954;2023-03-13T03:06:03;4.50;99.90
64685;DHT22;51109;47.414;18.954;2023-03-13T03:08:30;4.50;99.90
64685;DHT22;51109;47.414;18.954;2023-03-13T03:10:56;4.60;99.90
64685;DHT22;51109;47.414;18.954;2023-03-13T03:13:22;4.60;99.90
64685;DHT22;51109;47.414;18.954;2023-03-13T03:15:48;4.60;99.90
64685;DHT22;51109;47.414;18.954;2023-03-13T03:18:14;4.60;99.90
64685;DHT22;51109;47.414;18.954;2023-03-13T03:20:40;4.60;99.90
64685;DHT22;51109;47.414;18.954;2023-03-13T03:23:06;4.60;99.90
64685;DHT22;51109;47.414;18.954;2023-03-13T03:25:32;4.60;99.90
64685;DHT22;51109;47.414;18.954;2023-03-13T03:27:58;4.60;99.90
64685;DHT22;51109;47.414;18.954;2023-03-13T03:30:23;4.50;99.90
64685;DHT22;51109;47.414;18.954;2023-03-13T03:32:49;4.50;99.90
64685;DHT22;51109;47.414;18.954;2023-03-13T03:35:15;4.40;99.90
64685;DHT22;51109;47.414;18.954;2023-03-13T03:37:41;4.40;99.90
64685;DHT22;51109;47.414;18.954;2023-03-13T03:40:08;4.40;99.90
64685;DHT22;51109;47.414;18.954;2023-03-13T03:42:34;4.40;99.90
64685;DHT22;51109;47.414;18.954;2023-03-13T03:45:00;4.40;99.90
64685;DHT22;51109;47.414;18.954;2023-03-13T03:47:26;4.40;99.90
64685;DHT22;51109;47.414;18.954;2023-03-13T03:49:52;4.30;99.90
64685;DHT22;51109;47.414;18.954;2023-03-13T03:52:18;4.30;99.90
64685;DHT22;51109;47.414;18.954;2023-03-13T03:54:43;4.20;99.90
64685;DHT22;51109;47.414;18.954;2023-03-13T03:57:09;4.20;99.90
64685;DHT22;51109;47.414;18.954;2023-03-13T03:59:35;4.20;99.90
64685;DHT22;51109;47.414;18.954;2023-03-13T04:02:01;4.20;99.90
64685;DHT22;51109;47.414;18.954;2023-03-13T04:04:27;4.10;99.90
64685;DHT22;51109;47.414;18.954;2023-03-13T04:06:53;4.10;99.90
64685;DHT22;51109;47.414;18.954;2023-03-13T04:09:19;4.10;99.90
64685;DHT22;51109;47.414;18.954;2023-03-13T04:11:45;4.10;99.90
64685;DHT22;51109;47.414;18.954;2023-03-13T04:14:11;4.10;99.90
64685;DHT22;51109;47.414;18.954;2023-03-13T04:16:37;4.00;99.90
64685;DHT22;51109;47.414;18.954;2023-03-13T04:19:03;4.00;99.90
64685;DHT22;51109;47.414;18.954;2023-03-13T04:21:29;4.00;99.90
64685;DHT22;51109;47.414;18.954;2023-03-13T04:23:54;4.00;99.90
64685;DHT22;51109;47.414;18.954;2023-03-13T04:26:20;4.00;99.90
64685;DHT22;51109;47.414;18.954;2023-03-13T04:28:46;4.00;99.90
64685;DHT22;51109;47.414;18.954;2023-03-13T04:31:12;4.00;99.90
64685;DHT22;51109;47.414;18.954;2023-03-13T04:33:38;4.00;99.90
64685;DHT22;51109;47.414;18.954;2023-03-13T04:36:05;4.00;99.90
64685;DHT22;51109;47.414;18.954;2023-03-13T04:38:31;4.10;99.90
64685;DHT22;51109;47.414;18.954;2023-03-13T04:40:56;4.10;99.90
64685;DHT22;51109;47.414;18.954;2023-03-13T04:43:22;4.20;99.90
64685;DHT22;51109;47.414;18.954;2023-03-13T04:45:51;4.20;99.90
64685;DHT22;51109;47.414;18.954;2023-03-13T04:48:19;4.20;99.90
64685;DHT22;51109;47.414;18.954;2023-03-13T04:50:46;4.20;99.90
64685;DHT22;51109;47.414;18.954;2023-03-13T04:53:13;4.20;99.90
64685;DHT22;51109;47.414;18.954;2023-03-13T04:55:40;4.20;99.90
64685;DHT22;51109;47.414;18.954;2023-03-13T04:58:06;4.20;99.90
64685;DHT22;51109;47.414;18.954;2023-03-13T05:00:33;4.20;99.90
64685;DHT22;51109;47.414;18.954;2023-03-13T05:02:59;4.20;99.90
64685;DHT22;51109;47.414;18.954;2023-03-13T05:05:25;4.20;99.90
64685;DHT22;51109;47.414;18.954;2023-03-13T05:07:51;4.20;99.90
64685;DHT22;51109;47.414;18.954;2023-03-13T05:10:17;4.20;99.90
64685;DHT22;51109;47.414;18.954;2023-03-13T05:12:43;4.30;99.90
64685;DHT22;51109;47.414;18.954;2023-03-13T05:15:09;4.30;99.90
64685;DHT22;51109;47.414;18.954;2023-03-13T05:17:35;4.30;99.90
64685;DHT22;51109;47.414;18.954;2023-03-13T05:20:02;4.30;99.90
64685;DHT22;51109;47.414;18.954;2023-03-13T05:22:28;4.30;99.90
64685;DHT22;51109;47.414;18.954;2023-03-13T05:24:54;4.40;99.90
64685;DHT22;51109;47.414;18.954;2023-03-13T05:27:20;4.40;99.90
64685;DHT22;51109;47.414;18.954;2023-03-13T05:29:46;4.40;99.90
64685;DHT22;51109;47.414;18.954;2023-03-13T05:32:12;4.50;99.90
64685;DHT22;51109;47.414;18.954;2023-03-13T05:34:38;4.50;99.90
64685;DHT22;51109;47.414;18.954;2023-03-13T05:37:04;4.50;99.90
64685;DHT22;51109;47.414;18.954;2023-03-13T05:39:30;4.50;99.90
64685;DHT22;51109;47.414;18.954;2023-03-13T05:41:56;4.50;99.90
64685;DHT22;51109;47.414;18.954;2023-03-13T05:44:21;4.50;99.90
64685;DHT22;51109;47.414;18.954;2023-03-13T05:46:47;4.50;99.90
64685;DHT22;51109;47.414;18.954;2023-03-13T05:49:13;4.60;99.90
64685;DHT22;51109;47.414;18.954;2023-03-13T05:51:39;4.60;99.90
64685;DHT22;51109;47.414;18.954;2023-03-13T05:54:05;4.60;99.90
64685;DHT22;51109;47.414;18.954;2023-03-13T05:56:31;4.60;99.90
64685;DHT22;51109;47.414;18.954;2023-03-13T05:58:57;4.70;99.90
64685;DHT22;51109;47.414;18.954;2023-03-13T06:01:23;4.70;99.90
64685;DHT22;51109;47.414;18.954;2023-03-13T06:03:49;4.70;99.90
64685;DHT22;51109;47.414;18.954;2023-03-13T06:06:15;4.80;99.90
64685;DHT22;51109;47.414;18.954;2023-03-13T06:08:41;4.80;99.90
64685;DHT22;51109;47.414;18.954;2023-03-13T06:11:07;4.80;99.90
64685;DHT22;51109;47.414;18.954;2023-03-13T06:13:33;4.80;99.90
64685;DHT22;51109;47.414;18.954;2023-03-13T06:15:59;4.80;99.90
64685;DHT22;51109;47.414;18.954;2023-03-13T06:18:25;4.70;99.90
64685;DHT22;51109;47.414;18.954;2023-03-13T06:20:56;4.70;99.90
64685;DHT22;51109;47.414;18.954;2023-03-13T06:23:23;4.70;99.90
64685;DHT22;51109;47.414;18.954;2023-03-13T06:25:49;4.70;99.90
64685;DHT22;51109;47.414;18.954;2023-03-13T06:28:15;4.70;99.90
64685;DHT22;51109;47.414;18.954;2023-03-13T06:30:42;4.80;99.90
64685;DHT22;51109;47.414;18.954;2023-03-13T06:33:08;4.90;99.90
64685;DHT22;51109;47.414;18.954;2023-03-13T06:35:34;5.00;99.90
64685;DHT22;51109;47.414;18.954;2023-03-13T06:38:00;5.10;99.90
64685;DHT22;51109;47.414;18.954;2023-03-13T06:40:26;5.20;99.90
64685;DHT22;51109;47.414;18.954;2023-03-13T06:42:52;5.30;99.90
64685;DHT22;51109;47.414;18.954;2023-03-13T06:45:18;5.40;99.90
64685;DHT22;51109;47.414;18.954;2023-03-13T06:47:44;5.40;99.90
64685;DHT22;51109;47.414;18.954;2023-03-13T06:50:11;5.50;99.90
64685;DHT22;51109;47.414;18.954;2023-03-13T06:52:37;5.50;99.90
64685;DHT22;51109;47.414;18.954;2023-03-13T06:55:04;5.50;99.90
64685;DHT22;51109;47.414;18.954;2023-03-13T06:57:30;5.60;99.90
64685;DHT22;51109;47.414;18.954;2023-03-13T06:59:56;5.70;99.90
64685;DHT22;51109;47.414;18.954;2023-03-13T07:02:22;5.70;99.90
64685;DHT22;51109;47.414;18.954;2023-03-13T07:04:49;5.80;99.90
64685;DHT22;51109;47.414;18.954;2023-03-13T07:07:15;5.80;99.90
64685;DHT22;51109;47.414;18.954;2023-03-13T07:09:41;5.90;99.90
64685;DHT22;51109;47.414;18.954;2023-03-13T07:12:07;6.10;99.90
64685;DHT22;51109;47.414;18.954;2023-03-13T07:14:33;6.10;99.90
64685;DHT22;51109;47.414;18.954;2023-03-13T07:16:59;6.20;99.90
64685;DHT22;51109;47.414;18.954;2023-03-13T07:19:25;6.30;99.90
64685;DHT22;51109;47.414;18.954;2023-03-13T07:21:52;6.40;99.90
64685;DHT22;51109;47.414;18.954;2023-03-13T07:24:18;6.50;99.90
64685;DHT22;51109;47.414;18.954;2023-03-13T07:26:44;6.60;99.90
64685;DHT22;51109;47.414;18.954;2023-03-13T07:29:10;6.60;99.90
64685;DHT22;51109;47.414;18.954;2023-03-13T07:31:36;6.60;99.90
64685;DHT22;51109;47.414;18.954;2023-03-13T07:34:03;6.70;99.90
64685;DHT22;51109;47.414;18.954;2023-03-13T07:36:29;6.80;99.90
64685;DHT22;51109;47.414;18.954;2023-03-13T07:38:55;6.90;99.90
64685;DHT22;51109;47.414;18.954;2023-03-13T07:41:22;7.00;99.90
64685;DHT22;51109;47.414;18.954;2023-03-13T07:43:48;7.10;99.90
64685;DHT22;51109;47.414;18.954;2023-03-13T07:46:15;7.20;99.90
64685;DHT22;51109;47.414;18.954;2023-03-13T07:48:45;7.20;99.90
64685;DHT22;51109;47.414;18.954;2023-03-13T07:51:19;7.40;99.90
64685;DHT22;51109;47.414;18.954;2023-03-13T07:53:46;7.50;99.90
64685;DHT22;51109;47.414;18.954;2023-03-13T07:56:14;7.70;99.90
64685;DHT22;51109;47.414;18.954;2023-03-13T07:58:41;7.80;99.90
64685;DHT22;51109;47.414;18.954;2023-03-13T08:01:28;7.90;99.90
64685;DHT22;51109;47.414;18.954;2023-03-13T08:03:54;8.10;99.90
64685;DHT22;51109;47.414;18.954;2023-03-13T08:06:22;8.20;99.90
64685;DHT22;51109;47.414;18.954;2023-03-13T08:08:50;8.30;99.90
64685;DHT22;51109;47.414;18.954;2023-03-13T08:11:21;8.40;99.90
64685;DHT22;51109;47.414;18.954;2023-03-13T08:13:49;8.40;99.90
64685;DHT22;51109;47.414;18.954;2023-03-13T08:16:19;8.50;99.90
64685;DHT22;51109;47.414;18.954;2023-03-13T08:18:47;8.60;99.90
64685;DHT22;51109;47.414;18.954;2023-03-13T08:21:18;8.70;99.90
64685;DHT22;51109;47.414;18.954;2023-03-13T08:23:45;8.80;99.90
64685;DHT22;51109;47.414;18.954;2023-03-13T08:28:39;9.00;99.90
64685;DHT22;51109;47.414;18.954;2023-03-13T08:31:07;9.10;99.90
64685;DHT22;51109;47.414;18.954;2023-03-13T08:33:33;9.10;99.90
64685;DHT22;51109;47.414;18.954;2023-03-13T08:35:59;9.10;99.90
64685;DHT22;51109;47.414;18.954;2023-03-13T08:38:26;9.20;99.90
64685;DHT22;51109;47.414;18.954;2023-03-13T08:40:56;9.30;99.90
64685;DHT22;51109;47.414;18.954;2023-03-13T08:43:22;9.40;99.90
64685;DHT22;51109;47.414;18.954;2023-03-13T08:45:54;9.50;99.90
64685;DHT22;51109;47.414;18.954;2023-03-13T08:48:21;9.60;99.90
64685;DHT22;51109;47.414;18.954;2023-03-13T08:50:47;9.80;99.90
64685;DHT22;51109;47.414;18.954;2023-03-13T08:53:23;9.90;99.90
64685;DHT22;51109;47.414;18.954;2023-03-13T08:55:53;10.10;99.90
64685;DHT22;51109;47.414;18.954;2023-03-13T08:58:19;10.30;99.90
64685;DHT22;51109;47.414;18.954;2023-03-13T09:00:45;10.30;99.90
64685;DHT22;51109;47.414;18.954;2023-03-13T09:03:11;10.50;99.90
64685;DHT22;51109;47.414;18.954;2023-03-13T09:05:37;10.60;99.90
64685;DHT22;51109;47.414;18.954;2023-03-13T09:08:05;10.60;99.90
64685;DHT22;51109;47.414;18.954;2023-03-13T09:10:34;10.70;99.90
64685;DHT22;51109;47.414;18.954;2023-03-13T09:13:00;10.90;99.90
64685;DHT22;51109;47.414;18.954;2023-03-13T09:15:27;10.90;99.90
64685;DHT22;51109;47.414;18.954;2023-03-13T09:17:53;11.00;99.90
64685;DHT22;51109;47.414;18.954;2023-03-13T09:20:19;11.20;99.90
64685;DHT22;51109;47.414;18.954;2023-03-13T09:22:45;11.20;99.90
64685;DHT22;51109;47.414;18.954;2023-03-13T09:25:12;11.40;99.90
64685;DHT22;51109;47.414;18.954;2023-03-13T09:27:39;11.30;99.90
64685;DHT22;51109;47.414;18.954;2023-03-13T09:30:06;11.50;99.90
64685;DHT22;51109;47.414;18.954;2023-03-13T09:32:33;11.60;99.90
64685;DHT22;51109;47.414;18.954;2023-03-13T09:34:59;11.60;99.90
64685;DHT22;51109;47.414;18.954;2023-03-13T09:37:25;11.80;99.90
64685;DHT22;51109;47.414;18.954;2023-03-13T09:39:51;11.90;99.90
64685;DHT22;51109;47.414;18.954;2023-03-13T09:42:18;12.10;99.90
64685;DHT22;51109;47.414;18.954;2023-03-13T09:45:07;12.50;99.90
64685;DHT22;51109;47.414;18.954;2023-03-13T09:47:53;12.60;99.90
64685;DHT22;51109;47.414;18.954;2023-03-13T09:50:28;12.70;99.90
64685;DHT22;51109;47.414;18.954;2023-03-13T09:53:05;12.70;99.90
64685;DHT22;51109;47.414;18.954;2023-03-13T09:55:38;12.70;99.90
64685;DHT22;51109;47.414;18.954;2023-03-13T09:58:20;12.70;99.90
64685;DHT22;51109;47.414;18.954;2023-03-13T10:01:00;13.00;99.90
64685;DHT22;51109;47.414;18.954;2023-03-13T10:03:38;13.10;99.90
64685;DHT22;51109;47.414;18.954;2023-03-13T10:06:18;13.30;99.90
64685;DHT22;51109;47.414;18.954;2023-03-13T10:08:44;13.40;99.90
64685;DHT22;51109;47.414;18.954;2023-03-13T10:11:23;13.40;99.90
64685;DHT22;51109;47.414;18.954;2023-03-13T10:14:01;13.40;99.90
64685;DHT22;51109;47.414;18.954;2023-03-13T10:19:14;13.50;99.90
64685;DHT22;51109;47.414;18.954;2023-03-13T10:21:43;13.50;99.90
64685;DHT22;51109;47.414;18.954;2023-03-13T10:24:15;13.70;99.90
64685;DHT22;51109;47.414;18.954;2023-03-13T10:26:42;13.70;99.90
64685;DHT22;51109;47.414;18.954;2023-03-13T10:29:26;13.80;99.90
64685;DHT22;51109;47.414;18.954;2023-03-13T10:31:57;13.80;99.90
64685;DHT22;51109;47.414;18.954;2023-03-13T10:34:24;13.70;99.90
64685;DHT22;51109;47.414;18.954;2023-03-13T10:36:56;13.80;99.90
64685;DHT22;51109;47.414;18.954;2023-03-13T10:39:25;13.90;99.90
64685;DHT22;51109;47.414;18.954;2023-03-13T10:44:42;14.50;99.90
64685;DHT22;51109;47.414;18.954;2023-03-13T10:47:12;14.50;99.90
64685;DHT22;51109;47.414;18.954;2023-03-13T10:49:58;14.40;99.90
64685;DHT22;51109;47.414;18.954;2023-03-13T10:52:42;14.40;99.90
64685;DHT22;51109;47.414;18.954;2023-03-13T10:55:20;14.50;99.90
64685;DHT22;51109;47.414;18.954;2023-03-13T10:58:05;14.70;99.90
64685;DHT22;51109;47.414;18.954;2023-03-13T11:00:34;14.70;99.90
64685;DHT22;51109;47.414;18.954;2023-03-13T11:03:05;14.80;99.90
64685;DHT22;51109;47.414;18.954;2023-03-13T11:05:39;15.00;99.90
64685;DHT22;51109;47.414;18.954;2023-03-13T11:11:00;15.00;99.90
64685;DHT22;51109;47.414;18.954;2023-03-13T11:13:40;15.00;99.90
64685;DHT22;51109;47.414;18.954;2023-03-13T11:16:22;15.10;99.90
64685;DHT22;51109;47.414;18.954;2023-03-13T11:21:31;15.40;99.90
64685;DHT22;51109;47.414;18.954;2023-03-13T11:24:09;15.50;99.90
64685;DHT22;51109;47.414;18.954;2023-03-13T11:29:59;15.50;99.90
64685;DHT22;51109;47.414;18.954;2023-03-13T11:32:40;15.60;99.90
64685;DHT22;51109;47.414;18.954;2023-03-13T11:37:56;15.50;99.90
64685;DHT22;51109;47.414;18.954;2023-03-13T11:43:21;15.40;99.90
64685;DHT22;51109;47.414;18.954;2023-03-13T11:51:26;15.40;99.90
64685;DHT22;51109;47.414;18.954;2023-03-13T11:57:12;15.30;99.90
64685;DHT22;51109;47.414;18.954;2023-03-13T12:02:32;15.40;99.90
64685;DHT22;51109;47.414;18.954;2023-03-13T12:05:03;15.70;99.90
64685;DHT22;51109;47.414;18.954;2023-03-13T12:07:38;16.00;99.90
64685;DHT22;51109;47.414;18.954;2023-03-13T12:10:12;16.20;99.90
64685;DHT22;51109;47.414;18.954;2023-03-13T12:15:38;16.60;99.60
64685;DHT22;51109;47.414;18.954;2023-03-13T12:20:59;16.20;98.30
64685;DHT22;51109;47.414;18.954;2023-03-13T12:26:19;15.90;99.40
64685;DHT22;51109;47.414;18.954;2023-03-13T12:29:14;15.90;99.90
64685;DHT22;51109;47.414;18.954;2023-03-13T12:31:50;16.20;99.50
64685;DHT22;51109;47.414;18.954;2023-03-13T12:34:22;16.50;98.60
64685;DHT22;51109;47.414;18.954;2023-03-13T12:39:38;16.50;98.70
64685;DHT22;51109;47.414;18.954;2023-03-13T12:44:58;16.60;99.20
64685;DHT22;51109;47.414;18.954;2023-03-13T12:54:00;16.50;98.00
64685;DHT22;51109;47.414;18.954;2023-03-13T13:02:00;16.50;98.70
64685;DHT22;51109;47.414;18.954;2023-03-13T13:04:32;16.50;98.10
64685;DHT22;51109;47.414;18.954;2023-03-13T13:07:28;16.50;98.30
64685;DHT22;51109;47.414;18.954;2023-03-13T13:12:46;16.50;98.30
64685;DHT22;51109;47.414;18.954;2023-03-13T13:15:25;16.40;97.70
64685;DHT22;51109;47.414;18.954;2023-03-13T13:23:31;16.10;99.20
64685;DHT22;51109;47.414;18.954;2023-03-13T13:37:04;16.60;99.30
64685;DHT22;51109;47.414;18.954;2023-03-13T13:39:49;16.50;99.50
64685;DHT22;51109;47.414;18.954;2023-03-13T13:47:44;16.40;99.60
64685;DHT22;51109;47.414;18.954;2023-03-13T13:50:25;16.30;99.10
64685;DHT22;51109;47.414;18.954;2023-03-13T13:52:51;16.20;99.60
64685;DHT22;51109;47.414;18.954;2023-03-13T13:57:48;16.20;99.10
64685;DHT22;51109;47.414;18.954;2023-03-13T14:00:18;16.10;99.70
64685;DHT22;51109;47.414;18.954;2023-03-13T14:03:19;16.00;99.50
64685;DHT22;51109;47.414;18.954;2023-03-13T14:05:47;16.00;99.90
64685;DHT22;51109;47.414;18.954;2023-03-13T14:08:23;16.00;99.90
64685;DHT22;51109;47.414;18.954;2023-03-13T14:10:54;15.90;99.90
64685;DHT22;51109;47.414;18.954;2023-03-13T14:13:29;15.80;99.90
64685;DHT22;51109;47.414;18.954;2023-03-13T14:15:55;15.60;99.90
64685;DHT22;51109;47.414;18.954;2023-03-13T14:18:26;15.70;99.90
64685;DHT22;51109;47.414;18.954;2023-03-13T14:20:59;15.80;99.90
64685;DHT22;51109;47.414;18.954;2023-03-13T14:23:40;15.80;99.90
64685;DHT22;51109;47.414;18.954;2023-03-13T14:26:13;15.90;99.90
64685;DHT22;51109;47.414;18.954;2023-03-13T14:28:43;15.90;99.90
64685;DHT22;51109;47.414;18.954;2023-03-13T14:31:09;16.00;99.90
64685;DHT22;51109;47.414;18.954;2023-03-13T14:33:36;16.00;99.90
64685;DHT22;51109;47.414;18.954;2023-03-13T14:36:03;16.20;99.90
64685;DHT22;51109;47.414;18.954;2023-03-13T14:38:29;16.20;99.90
64685;DHT22;51109;47.414;18.954;2023-03-13T14:40:55;16.00;99.90
64685;DHT22;51109;47.414;18.954;2023-03-13T14:43:29;16.00;99.90
64685;DHT22;51109;47.414;18.954;2023-03-13T14:45:56;16.00;99.90
64685;DHT22;51109;47.414;18.954;2023-03-13T14:48:30;15.90;99.90
64685;DHT22;51109;47.414;18.954;2023-03-13T14:51:14;15.90;99.90
64685;DHT22;51109;47.414;18.954;2023-03-13T14:53:53;15.90;99.90
64685;DHT22;51109;47.414;18.954;2023-03-13T14:56:20;15.90;99.90
64685;DHT22;51109;47.414;18.954;2023-03-13T14:58:46;15.90;99.90
64685;DHT22;51109;47.414;18.954;2023-03-13T15:01:24;15.80;99.90
64685;DHT22;51109;47.414;18.954;2023-03-13T15:03:51;15.80;99.90
64685;DHT22;51109;47.414;18.954;2023-03-13T15:06:19;15.80;99.90
64685;DHT22;51109;47.414;18.954;2023-03-13T15:08:48;15.80;99.90
64685;DHT22;51109;47.414;18.954;2023-03-13T15:11:32;15.80;99.90
64685;DHT22;51109;47.414;18.954;2023-03-13T15:14:02;15.80;99.90
64685;DHT22;51109;47.414;18.954;2023-03-13T15:16:28;15.60;99.90
64685;DHT22;51109;47.414;18.954;2023-03-13T15:18:56;15.40;99.90
64685;DHT22;51109;47.414;18.954;2023-03-13T15:21:32;15.30;99.90
64685;DHT22;51109;47.414;18.954;2023-03-13T15:24:20;15.20;99.90
64685;DHT22;51109;47.414;18.954;2023-03-13T15:26:45;15.20;99.90
64685;DHT22;51109;47.414;18.954;2023-03-13T15:29:11;15.10;99.90
64685;DHT22;51109;47.414;18.954;2023-03-13T15:31:38;15.00;99.90
64685;DHT22;51109;47.414;18.954;2023-03-13T15:34:11;14.90;99.90
64685;DHT22;51109;47.414;18.954;2023-03-13T15:36:38;14.70;99.90
64685;DHT22;51109;47.414;18.954;2023-03-13T15:39:17;14.60;99.90
64685;DHT22;51109;47.414;18.954;2023-03-13T15:41:45;14.60;99.90
64685;DHT22;51109;47.414;18.954;2023-03-13T15:44:11;14.50;99.90
64685;DHT22;51109;47.414;18.954;2023-03-13T15:46:37;14.50;99.90
64685;DHT22;51109;47.414;18.954;2023-03-13T15:49:03;14.40;99.90
64685;DHT22;51109;47.414;18.954;2023-03-13T15:51:29;14.30;99.90
64685;DHT22;51109;47.414;18.954;2023-03-13T15:53:55;14.20;99.90
64685;DHT22;51109;47.414;18.954;2023-03-13T15:56:22;14.20;99.90
64685;DHT22;51109;47.414;18.954;2023-03-13T15:58:48;14.10;99.90
64685;DHT22;51109;47.414;18.954;2023-03-13T16:01:16;14.00;99.90
64685;DHT22;51109;47.414;18.954;2023-03-13T16:03:42;14.00;99.90
64685;DHT22;51109;47.414;18.954;2023-03-13T16:06:16;14.00;99.90
64685;DHT22;51109;47.414;18.954;2023-03-13T16:08:43;14.00;99.90
64685;DHT22;51109;47.414;18.954;2023-03-13T16:11:12;13.90;99.90
64685;DHT22;51109;47.414;18.954;2023-03-13T16:13:39;13.90;99.90
64685;DHT22;51109;47.414;18.954;2023-03-13T16:16:22;13.80;99.90
64685;DHT22;51109;47.414;18.954;2023-03-13T16:18:50;13.80;99.90
64685;DHT22;51109;47.414;18.954;2023-03-13T16:21:20;13.70;99.90
64685;DHT22;51109;47.414;18.954;2023-03-13T16:23:46;13.60;99.90
64685;DHT22;51109;47.414;18.954;2023-03-13T16:26:18;13.50;99.90
64685;DHT22;51109;47.414;18.954;2023-03-13T16:28:45;13.50;99.90
64685;DHT22;51109;47.414;18.954;2023-03-13T16:33:46;13.40;99.90
64685;DHT22;51109;47.414;18.954;2023-03-13T16:36:17;13.30;99.90
64685;DHT22;51109;47.414;18.954;2023-03-13T16:38:44;13.30;99.90
64685;DHT22;51109;47.414;18.954;2023-03-13T16:41:19;13.10;99.90
64685;DHT22;51109;47.414;18.954;2023-03-13T16:43:46;13.10;99.90
64685;DHT22;51109;47.414;18.954;2023-03-13T16:46:23;13.10;99.90
64685;DHT22;51109;47.414;18.954;2023-03-13T16:48:52;13.00;99.90
64685;DHT22;51109;47.414;18.954;2023-03-13T16:51:23;13.00;99.90
64685;DHT22;51109;47.414;18.954;2023-03-13T16:53:51;13.00;99.90
64685;DHT22;51109;47.414;18.954;2023-03-13T16:56:22;12.90;99.90
64685;DHT22;51109;47.414;18.954;2023-03-13T16:58:49;12.80;99.90
64685;DHT22;51109;47.414;18.954;2023-03-13T17:01:15;12.80;99.90
64685;DHT22;51109;47.414;18.954;2023-03-13T17:03:42;12.80;99.90
64685;DHT22;51109;47.414;18.954;2023-03-13T17:06:26;12.70;99.90
64685;DHT22;51109;47.414;18.954;2023-03-13T17:08:53;12.70;99.90
64685;DHT22;51109;47.414;18.954;2023-03-13T17:11:20;12.60;99.90
64685;DHT22;51109;47.414;18.954;2023-03-13T17:13:48;12.60;99.90
64685;DHT22;51109;47.414;18.954;2023-03-13T17:16:34;12.50;99.90
64685;DHT22;51109;47.414;18.954;2023-03-13T17:19:01;12.50;99.90